sensor_id;sensor_type;location;lat;lon;timestamp;P1;durP1;ratioP1;P2;durP2;ratioP2
50355;SDS011;36264;51.296;-0.602;2023-02-01T00:00:32;10.55;;;2.22;;
50355;SDS011;36264;51.296;-0.602;2023-02-01T00:02:59;5.90;;;1.95;;
50355;SDS011;36264;51.296;-0.602;2023-02-01T00:05:24;13.00;;;2.65;;
50355;SDS011;36264;51.296;-0.602;2023-02-01T00:07:50;9.63;;;2.22;;
50355;SDS011;36264;51.296;-0.602;2023-02-01T00:10:15;7.10;;;2.08;;
50355;SDS011;36264;51.296;-0.602;2023-02-01T00:12:41;8.32;;;3.05;;
50355;SDS011;36264;51.296;-0.602;2023-02-01T00:15:06;11.23;;;2.20;;
50355;SDS011;36264;51.296;-0.602;2023-02-01T00:17:32;9.40;;;2.33;;
50355;SDS011;36264;51.296;-0.602;2023-02-01T00:19:57;8.35;;;2.20;;
50355;SDS011;36264;51.296;-0.602;2023-02-01T00:22:23;9.38;;;2.08;;
50355;SDS011;36264;51.296;-0.602;2023-02-01T00:24:48;8.68;;;2.28;;
50355;SDS011;36264;51.296;-0.602;2023-02-01T00:27:13;11.27;;;2.50;;
50355;SDS011;36264;51.296;-0.602;2023-02-01T00:29:42;9.07;;;3.10;;
50355;SDS011;36264;51.296;-0.602;2023-02-01T00:32:09;11.98;;;3.47;;
50355;SDS011;36264;51.296;-0.602;2023-02-01T00:34:34;11.98;;;2.35;;
50355;SDS011;36264;51.296;-0.602;2023-02-01T00:37:00;9.38;;;2.10;;
50355;SDS011;36264;51.296;-0.602;2023-02-01T00:39:25;9.35;;;2.85;;
50355;SDS011;36264;51.296;-0.602;2023-02-01T00:41:51;9.85;;;2.50;;
50355;SDS011;36264;51.296;-0.602;2023-02-01T00:44:16;11.65;;;2.58;;
50355;SDS011;36264;51.296;-0.602;2023-02-01T00:46:41;11.63;;;2.28;;
50355;SDS011;36264;51.296;-0.602;2023-02-01T00:49:07;8.85;;;1.98;;
50355;SDS011;36264;51.296;-0.602;2023-02-01T00:51:34;13.32;;;2.60;;
50355;SDS011;36264;51.296;-0.602;2023-02-01T00:54:00;12.90;;;2.30;;
50355;SDS011;36264;51.296;-0.602;2023-02-01T00:56:25;8.85;;;2.25;;
50355;SDS011;36264;51.296;-0.602;2023-02-01T00:58:52;7.40;;;2.05;;
50355;SDS011;36264;51.296;-0.602;2023-02-01T01:01:19;12.80;;;2.22;;
50355;SDS011;36264;51.296;-0.602;2023-02-01T01:03:48;14.18;;;2.08;;
50355;SDS011;36264;51.296;-0.602;2023-02-01T01:06:22;13.00;;;2.88;;
50355;SDS011;36264;51.296;-0.602;2023-02-01T01:08:53;16.45;;;2.63;;
50355;SDS011;36264;51.296;-0.602;2023-02-01T01:11:21;9.10;;;1.92;;
50355;SDS011;36264;51.296;-0.602;2023-02-01T01:13:49;24.55;;;3.13;;
50355;SDS011;36264;51.296;-0.602;2023-02-01T01:16:16;13.93;;;2.90;;
50355;SDS011;36264;51.296;-0.602;2023-02-01T01:18:42;10.90;;;2.53;;
50355;SDS011;36264;51.296;-0.602;2023-02-01T01:21:08;13.40;;;2.67;;
50355;SDS011;36264;51.296;-0.602;2023-02-01T01:23:35;14.55;;;2.50;;
50355;SDS011;36264;51.296;-0.602;2023-02-01T01:26:04;10.38;;;2.40;;
50355;SDS011;36264;51.296;-0.602;2023-02-01T01:28:34;12.57;;;2.25;;
50355;SDS011;36264;51.296;-0.602;2023-02-01T01:31:00;13.55;;;2.60;;
50355;SDS011;36264;51.296;-0.602;2023-02-01T01:33:25;11.23;;;3.08;;
50355;SDS011;36264;51.296;-0.602;2023-02-01T01:35:50;16.45;;;3.20;;
50355;SDS011;36264;51.296;-0.602;2023-02-01T01:38:16;15.77;;;3.03;;
50355;SDS011;36264;51.296;-0.602;2023-02-01T01:40:44;14.40;;;3.40;;
50355;SDS011;36264;51.296;-0.602;2023-02-01T01:43:14;14.25;;;3.70;;
50355;SDS011;36264;51.296;-0.602;2023-02-01T01:45:41;12.43;;;2.83;;
50355;SDS011;36264;51.296;-0.602;2023-02-01T01:48:08;21.73;;;3.92;;
50355;SDS011;36264;51.296;-0.602;2023-02-01T01:50:41;14.90;;;3.15;;
50355;SDS011;36264;51.296;-0.602;2023-02-01T01:53:13;14.43;;;2.53;;
50355;SDS011;36264;51.296;-0.602;2023-02-01T01:55:43;11.27;;;2.50;;
50355;SDS011;36264;51.296;-0.602;2023-02-01T01:58:14;12.68;;;4.10;;
50355;SDS011;36264;51.296;-0.602;2023-02-01T02:00:43;14.52;;;2.65;;
50355;SDS011;36264;51.296;-0.602;2023-02-01T02:03:12;16.45;;;3.10;;
50355;SDS011;36264;51.296;-0.602;2023-02-01T02:05:39;12.75;;;2.60;;
50355;SDS011;36264;51.296;-0.602;2023-02-01T02:08:04;8.50;;;2.20;;
50355;SDS011;36264;51.296;-0.602;2023-02-01T02:10:30;12.98;;;2.72;;
50355;SDS011;36264;51.296;-0.602;2023-02-01T02:13:15;8.13;;;2.40;;
50355;SDS011;36264;51.296;-0.602;2023-02-01T02:15:43;12.85;;;3.10;;
50355;SDS011;36264;51.296;-0.602;2023-02-01T02:18:19;11.45;;;2.70;;
50355;SDS011;36264;51.296;-0.602;2023-02-01T02:20:59;9.68;;;2.20;;
50355;SDS011;36264;51.296;-0.602;2023-02-01T02:41:09;11.98;;;2.28;;
50355;SDS011;36264;51.296;-0.602;2023-02-01T02:43:37;16.13;;;4.10;;
50355;SDS011;36264;51.296;-0.602;2023-02-01T02:46:33;16.45;;;2.78;;
50355;SDS011;36264;51.296;-0.602;2023-02-01T02:49:33;14.45;;;2.38;;
50355;SDS011;36264;51.296;-0.602;2023-02-01T02:52:13;10.50;;;2.50;;
50355;SDS011;36264;51.296;-0.602;2023-02-01T02:55:03;10.98;;;2.03;;
50355;SDS011;36264;51.296;-0.602;2023-02-01T02:57:36;11.35;;;2.40;;
50355;SDS011;36264;51.296;-0.602;2023-02-01T03:00:25;17.25;;;2.78;;
50355;SDS011;36264;51.296;-0.602;2023-02-01T03:03:12;12.45;;;2.75;;
50355;SDS011;36264;51.296;-0.602;2023-02-01T03:05:56;10.43;;;2.47;;
50355;SDS011;36264;51.296;-0.602;2023-02-01T03:08:30;11.25;;;2.60;;
50355;SDS011;36264;51.296;-0.602;2023-02-01T03:10:58;14.30;;;2.38;;
50355;SDS011;36264;51.296;-0.602;2023-02-01T03:19:12;11.95;;;2.95;;
50355;SDS011;36264;51.296;-0.602;2023-02-01T03:24:17;17.15;;;3.53;;
50355;SDS011;36264;51.296;-0.602;2023-02-01T03:26:50;13.63;;;2.78;;
50355;SDS011;36264;51.296;-0.602;2023-02-01T03:29:23;13.60;;;3.05;;
50355;SDS011;36264;51.296;-0.602;2023-02-01T03:31:52;15.35;;;3.47;;
50355;SDS011;36264;51.296;-0.602;2023-02-01T03:34:18;17.05;;;3.70;;
50355;SDS011;36264;51.296;-0.602;2023-02-01T03:36:46;14.23;;;2.90;;
50355;SDS011;36264;51.296;-0.602;2023-02-01T03:39:17;15.10;;;2.95;;
50355;SDS011;36264;51.296;-0.602;2023-02-01T03:41:53;16.92;;;2.80;;
50355;SDS011;36264;51.296;-0.602;2023-02-01T03:44:26;10.60;;;3.05;;
50355;SDS011;36264;51.296;-0.602;2023-02-01T03:47:08;16.67;;;3.42;;
50355;SDS011;36264;51.296;-0.602;2023-02-01T03:49:40;15.85;;;3.20;;
50355;SDS011;36264;51.296;-0.602;2023-02-01T03:52:13;14.55;;;3.03;;
50355;SDS011;36264;51.296;-0.602;2023-02-01T03:54:43;11.90;;;2.70;;
50355;SDS011;36264;51.296;-0.602;2023-02-01T03:57:11;14.50;;;3.30;;
50355;SDS011;36264;51.296;-0.602;2023-02-01T03:59:40;14.95;;;3.05;;
50355;SDS011;36264;51.296;-0.602;2023-02-01T04:02:07;10.40;;;2.60;;
50355;SDS011;36264;51.296;-0.602;2023-02-01T04:04:33;14.30;;;2.63;;
50355;SDS011;36264;51.296;-0.602;2023-02-01T04:06:59;14.82;;;3.40;;
50355;SDS011;36264;51.296;-0.602;2023-02-01T04:09:24;9.82;;;2.50;;
50355;SDS011;36264;51.296;-0.602;2023-02-01T04:11:50;12.10;;;3.08;;
50355;SDS011;36264;51.296;-0.602;2023-02-01T04:14:15;10.65;;;2.60;;
50355;SDS011;36264;51.296;-0.602;2023-02-01T04:16:40;8.40;;;2.40;;
50355;SDS011;36264;51.296;-0.602;2023-02-01T04:19:06;17.75;;;3.42;;
50355;SDS011;36264;51.296;-0.602;2023-02-01T04:21:31;13.57;;;2.65;;
50355;SDS011;36264;51.296;-0.602;2023-02-01T04:23:57;17.77;;;3.53;;
50355;SDS011;36264;51.296;-0.602;2023-02-01T04:26:22;10.57;;;2.47;;
50355;SDS011;36264;51.296;-0.602;2023-02-01T04:28:47;14.95;;;2.88;;
50355;SDS011;36264;51.296;-0.602;2023-02-01T04:31:13;11.40;;;2.33;;
50355;SDS011;36264;51.296;-0.602;2023-02-01T04:33:42;14.80;;;2.53;;
50355;SDS011;36264;51.296;-0.602;2023-02-01T04:36:08;12.10;;;2.45;;
50355;SDS011;36264;51.296;-0.602;2023-02-01T04:38:34;10.38;;;2.38;;
50355;SDS011;36264;51.296;-0.602;2023-02-01T04:41:00;12.48;;;2.60;;
50355;SDS011;36264;51.296;-0.602;2023-02-01T04:43:25;13.93;;;2.63;;
50355;SDS011;36264;51.296;-0.602;2023-02-01T04:45:51;10.75;;;3.08;;
50355;SDS011;36264;51.296;-0.602;2023-02-01T04:48:17;13.43;;;2.33;;
50355;SDS011;36264;51.296;-0.602;2023-02-01T04:50:44;8.80;;;2.42;;
50355;SDS011;36264;51.296;-0.602;2023-02-01T04:53:13;6.32;;;1.73;;
50355;SDS011;36264;51.296;-0.602;2023-02-01T04:55:39;11.52;;;2.45;;
50355;SDS011;36264;51.296;-0.602;2023-02-01T04:58:05;10.50;;;2.40;;
50355;SDS011;36264;51.296;-0.602;2023-02-01T05:00:30;7.95;;;2.22;;
50355;SDS011;36264;51.296;-0.602;2023-02-01T05:02:56;10.43;;;2.45;;
50355;SDS011;36264;51.296;-0.602;2023-02-01T05:05:21;13.77;;;3.17;;
50355;SDS011;36264;51.296;-0.602;2023-02-01T05:07:46;13.63;;;2.90;;
50355;SDS011;36264;51.296;-0.602;2023-02-01T05:10:12;15.80;;;2.50;;
50355;SDS011;36264;51.296;-0.602;2023-02-01T05:12:37;14.88;;;3.08;;
50355;SDS011;36264;51.296;-0.602;2023-02-01T05:15:21;12.30;;;2.65;;
50355;SDS011;36264;51.296;-0.602;2023-02-01T05:17:47;16.15;;;2.95;;
50355;SDS011;36264;51.296;-0.602;2023-02-01T05:20:12;13.95;;;2.95;;
50355;SDS011;36264;51.296;-0.602;2023-02-01T05:22:37;12.20;;;2.45;;
50355;SDS011;36264;51.296;-0.602;2023-02-01T05:25:03;10.45;;;2.47;;
50355;SDS011;36264;51.296;-0.602;2023-02-01T05:27:29;11.48;;;3.00;;
50355;SDS011;36264;51.296;-0.602;2023-02-01T05:29:55;12.00;;;2.53;;
50355;SDS011;36264;51.296;-0.602;2023-02-01T05:32:20;12.65;;;2.95;;
50355;SDS011;36264;51.296;-0.602;2023-02-01T05:34:46;11.52;;;2.50;;
50355;SDS011;36264;51.296;-0.602;2023-02-01T05:37:11;13.95;;;3.03;;
50355;SDS011;36264;51.296;-0.602;2023-02-01T05:39:36;11.32;;;2.40;;
50355;SDS011;36264;51.296;-0.602;2023-02-01T05:42:03;14.02;;;2.80;;
50355;SDS011;36264;51.296;-0.602;2023-02-01T05:44:28;12.48;;;2.80;;
50355;SDS011;36264;51.296;-0.602;2023-02-01T05:46:54;14.90;;;3.20;;
50355;SDS011;36264;51.296;-0.602;2023-02-01T05:49:19;14.82;;;3.10;;
50355;SDS011;36264;51.296;-0.602;2023-02-01T05:51:44;14.93;;;2.42;;
50355;SDS011;36264;51.296;-0.602;2023-02-01T05:54:10;9.73;;;2.70;;
50355;SDS011;36264;51.296;-0.602;2023-02-01T05:56:36;16.70;;;3.42;;
50355;SDS011;36264;51.296;-0.602;2023-02-01T05:59:01;14.40;;;2.92;;
50355;SDS011;36264;51.296;-0.602;2023-02-01T06:01:26;10.38;;;2.58;;
50355;SDS011;36264;51.296;-0.602;2023-02-01T06:03:52;15.80;;;2.97;;
50355;SDS011;36264;51.296;-0.602;2023-02-01T06:06:17;20.48;;;3.92;;
50355;SDS011;36264;51.296;-0.602;2023-02-01T06:08:43;12.23;;;2.63;;
50355;SDS011;36264;51.296;-0.602;2023-02-01T06:11:09;13.73;;;2.78;;
50355;SDS011;36264;51.296;-0.602;2023-02-01T06:13:34;17.58;;;3.80;;
50355;SDS011;36264;51.296;-0.602;2023-02-01T06:16:00;17.20;;;3.20;;
50355;SDS011;36264;51.296;-0.602;2023-02-01T06:18:27;10.70;;;2.90;;
50355;SDS011;36264;51.296;-0.602;2023-02-01T06:20:53;21.60;;;3.85;;
50355;SDS011;36264;51.296;-0.602;2023-02-01T06:23:20;16.90;;;2.85;;
50355;SDS011;36264;51.296;-0.602;2023-02-01T06:25:48;8.07;;;2.30;;
50355;SDS011;36264;51.296;-0.602;2023-02-01T06:28:14;14.38;;;2.63;;
50355;SDS011;36264;51.296;-0.602;2023-02-01T06:30:40;12.82;;;3.28;;
50355;SDS011;36264;51.296;-0.602;2023-02-01T06:33:08;11.70;;;2.92;;
50355;SDS011;36264;51.296;-0.602;2023-02-01T06:35:33;14.20;;;3.15;;
50355;SDS011;36264;51.296;-0.602;2023-02-01T06:37:58;10.05;;;2.05;;
50355;SDS011;36264;51.296;-0.602;2023-02-01T06:40:24;12.95;;;2.65;;
50355;SDS011;36264;51.296;-0.602;2023-02-01T06:42:49;11.65;;;2.10;;
50355;SDS011;36264;51.296;-0.602;2023-02-01T06:45:16;8.20;;;1.95;;
50355;SDS011;36264;51.296;-0.602;2023-02-01T06:47:41;11.20;;;2.38;;
50355;SDS011;36264;51.296;-0.602;2023-02-01T06:50:07;12.85;;;2.78;;
50355;SDS011;36264;51.296;-0.602;2023-02-01T06:52:33;9.45;;;2.40;;
50355;SDS011;36264;51.296;-0.602;2023-02-01T06:54:58;13.80;;;2.38;;
50355;SDS011;36264;51.296;-0.602;2023-02-01T06:57:23;13.00;;;2.17;;
50355;SDS011;36264;51.296;-0.602;2023-02-01T06:59:50;16.85;;;2.60;;
50355;SDS011;36264;51.296;-0.602;2023-02-01T07:02:15;11.32;;;2.55;;
50355;SDS011;36264;51.296;-0.602;2023-02-01T07:04:41;10.30;;;2.75;;
50355;SDS011;36264;51.296;-0.602;2023-02-01T07:07:06;12.20;;;2.47;;
50355;SDS011;36264;51.296;-0.602;2023-02-01T07:09:31;16.88;;;3.58;;
50355;SDS011;36264;51.296;-0.602;2023-02-01T07:11:57;14.40;;;2.30;;
50355;SDS011;36264;51.296;-0.602;2023-02-01T07:14:22;12.23;;;2.70;;
50355;SDS011;36264;51.296;-0.602;2023-02-01T07:16:47;11.73;;;3.03;;
50355;SDS011;36264;51.296;-0.602;2023-02-01T07:19:13;9.77;;;2.10;;
50355;SDS011;36264;51.296;-0.602;2023-02-01T07:21:38;8.82;;;3.03;;
50355;SDS011;36264;51.296;-0.602;2023-02-01T07:24:03;11.90;;;2.65;;
50355;SDS011;36264;51.296;-0.602;2023-02-01T07:26:29;7.55;;;2.13;;
50355;SDS011;36264;51.296;-0.602;2023-02-01T07:28:55;12.02;;;2.50;;
50355;SDS011;36264;51.296;-0.602;2023-02-01T07:31:20;12.02;;;2.50;;
50355;SDS011;36264;51.296;-0.602;2023-02-01T07:33:49;13.30;;;2.63;;
50355;SDS011;36264;51.296;-0.602;2023-02-01T07:38:43;10.25;;;2.40;;
50355;SDS011;36264;51.296;-0.602;2023-02-01T07:41:11;12.23;;;2.75;;
50355;SDS011;36264;51.296;-0.602;2023-02-01T07:43:37;10.55;;;2.28;;
50355;SDS011;36264;51.296;-0.602;2023-02-01T07:46:02;16.45;;;2.70;;
50355;SDS011;36264;51.296;-0.602;2023-02-01T07:48:29;13.95;;;2.47;;
50355;SDS011;36264;51.296;-0.602;2023-02-01T07:51:08;10.18;;;2.03;;
50355;SDS011;36264;51.296;-0.602;2023-02-01T07:53:36;11.33;;;2.03;;
50355;SDS011;36264;51.296;-0.602;2023-02-01T07:56:02;11.23;;;2.28;;
50355;SDS011;36264;51.296;-0.602;2023-02-01T07:58:28;11.55;;;2.35;;
50355;SDS011;36264;51.296;-0.602;2023-02-01T08:00:54;11.38;;;2.20;;
50355;SDS011;36264;51.296;-0.602;2023-02-01T08:03:38;12.23;;;2.60;;
50355;SDS011;36264;51.296;-0.602;2023-02-01T08:06:04;13.55;;;2.10;;
50355;SDS011;36264;51.296;-0.602;2023-02-01T08:08:31;11.35;;;2.35;;
50355;SDS011;36264;51.296;-0.602;2023-02-01T08:10:57;13.48;;;2.30;;
50355;SDS011;36264;51.296;-0.602;2023-02-01T08:13:23;9.30;;;2.35;;
50355;SDS011;36264;51.296;-0.602;2023-02-01T08:15:49;10.38;;;2.15;;
50355;SDS011;36264;51.296;-0.602;2023-02-01T08:18:14;6.63;;;2.10;;
50355;SDS011;36264;51.296;-0.602;2023-02-01T08:20:41;18.08;;;3.50;;
50355;SDS011;36264;51.296;-0.602;2023-02-01T08:23:08;13.63;;;2.42;;
50355;SDS011;36264;51.296;-0.602;2023-02-01T08:25:34;10.50;;;2.10;;
50355;SDS011;36264;51.296;-0.602;2023-02-01T08:28:01;8.75;;;2.10;;
50355;SDS011;36264;51.296;-0.602;2023-02-01T08:30:27;11.48;;;2.30;;
50355;SDS011;36264;51.296;-0.602;2023-02-01T08:32:52;8.43;;;1.83;;
50355;SDS011;36264;51.296;-0.602;2023-02-01T08:35:18;12.10;;;2.03;;
50355;SDS011;36264;51.296;-0.602;2023-02-01T08:37:43;13.32;;;2.85;;
50355;SDS011;36264;51.296;-0.602;2023-02-01T08:40:08;12.43;;;2.83;;
50355;SDS011;36264;51.296;-0.602;2023-02-01T08:42:34;13.73;;;2.78;;
50355;SDS011;36264;51.296;-0.602;2023-02-01T08:45:19;10.57;;;1.95;;
50355;SDS011;36264;51.296;-0.602;2023-02-01T08:47:46;11.20;;;2.47;;
50355;SDS011;36264;51.296;-0.602;2023-02-01T08:50:12;9.10;;;2.10;;
50355;SDS011;36264;51.296;-0.602;2023-02-01T08:52:39;11.95;;;2.47;;
50355;SDS011;36264;51.296;-0.602;2023-02-01T08:55:05;10.65;;;2.50;;
50355;SDS011;36264;51.296;-0.602;2023-02-01T08:57:32;11.27;;;2.38;;
50355;SDS011;36264;51.296;-0.602;2023-02-01T08:59:58;16.23;;;3.03;;
50355;SDS011;36264;51.296;-0.602;2023-02-01T09:02:25;12.85;;;3.47;;
50355;SDS011;36264;51.296;-0.602;2023-02-01T09:04:50;7.10;;;1.85;;
50355;SDS011;36264;51.296;-0.602;2023-02-01T09:07:15;10.75;;;2.90;;
50355;SDS011;36264;51.296;-0.602;2023-02-01T09:09:42;12.90;;;2.42;;
50355;SDS011;36264;51.296;-0.602;2023-02-01T09:12:09;12.95;;;2.50;;
50355;SDS011;36264;51.296;-0.602;2023-02-01T09:14:34;10.98;;;2.72;;
50355;SDS011;36264;51.296;-0.602;2023-02-01T09:16:59;9.35;;;2.25;;
50355;SDS011;36264;51.296;-0.602;2023-02-01T09:19:25;14.25;;;2.67;;
50355;SDS011;36264;51.296;-0.602;2023-02-01T09:21:50;12.20;;;2.50;;
50355;SDS011;36264;51.296;-0.602;2023-02-01T09:24:16;15.45;;;3.47;;
50355;SDS011;36264;51.296;-0.602;2023-02-01T09:26:41;15.55;;;2.42;;
50355;SDS011;36264;51.296;-0.602;2023-02-01T09:29:06;10.30;;;1.92;;
50355;SDS011;36264;51.296;-0.602;2023-02-01T09:31:35;12.93;;;2.60;;
50355;SDS011;36264;51.296;-0.602;2023-02-01T09:34:01;13.68;;;2.42;;
50355;SDS011;36264;51.296;-0.602;2023-02-01T09:36:26;14.35;;;2.92;;
50355;SDS011;36264;51.296;-0.602;2023-02-01T09:38:52;17.20;;;3.25;;
50355;SDS011;36264;51.296;-0.602;2023-02-01T09:44:17;10.77;;;2.50;;
50355;SDS011;36264;51.296;-0.602;2023-02-01T09:46:43;7.20;;;2.20;;
50355;SDS011;36264;51.296;-0.602;2023-02-01T09:49:18;15.93;;;3.05;;
50355;SDS011;36264;51.296;-0.602;2023-02-01T09:51:54;15.38;;;2.70;;
50355;SDS011;36264;51.296;-0.602;2023-02-01T09:54:22;17.42;;;3.35;;
50355;SDS011;36264;51.296;-0.602;2023-02-01T09:56:55;15.07;;;2.92;;
50355;SDS011;36264;51.296;-0.602;2023-02-01T10:02:19;10.52;;;2.30;;
50355;SDS011;36264;51.296;-0.602;2023-02-01T10:04:48;13.48;;;3.17;;
50355;SDS011;36264;51.296;-0.602;2023-02-01T10:15:20;15.75;;;2.85;;
50355;SDS011;36264;51.296;-0.602;2023-02-01T10:18:26;12.88;;;2.72;;
50355;SDS011;36264;51.296;-0.602;2023-02-01T10:23:43;18.40;;;4.15;;
50355;SDS011;36264;51.296;-0.602;2023-02-01T10:26:25;19.65;;;3.08;;
50355;SDS011;36264;51.296;-0.602;2023-02-01T10:28:56;12.65;;;2.95;;
50355;SDS011;36264;51.296;-0.602;2023-02-01T10:31:25;12.93;;;2.95;;
50355;SDS011;36264;51.296;-0.602;2023-02-01T10:33:56;10.47;;;2.70;;
50355;SDS011;36264;51.296;-0.602;2023-02-01T10:36:34;12.25;;;3.60;;
50355;SDS011;36264;51.296;-0.602;2023-02-01T10:41:33;8.93;;;3.00;;
50355;SDS011;36264;51.296;-0.602;2023-02-01T10:44:02;20.98;;;4.60;;
50355;SDS011;36264;51.296;-0.602;2023-02-01T10:46:30;13.60;;;3.20;;
50355;SDS011;36264;51.296;-0.602;2023-02-01T10:48:56;17.05;;;2.97;;
50355;SDS011;36264;51.296;-0.602;2023-02-01T10:51:30;15.52;;;2.95;;
50355;SDS011;36264;51.296;-0.602;2023-02-01T10:54:33;18.80;;;4.53;;
50355;SDS011;36264;51.296;-0.602;2023-02-01T10:57:04;10.90;;;3.83;;
50355;SDS011;36264;51.296;-0.602;2023-02-01T10:59:33;18.63;;;3.55;;
50355;SDS011;36264;51.296;-0.602;2023-02-01T11:02:02;13.40;;;3.45;;
50355;SDS011;36264;51.296;-0.602;2023-02-01T11:04:40;16.50;;;3.80;;
50355;SDS011;36264;51.296;-0.602;2023-02-01T11:09:34;17.27;;;3.67;;
50355;SDS011;36264;51.296;-0.602;2023-02-01T11:12:04;11.88;;;3.22;;
50355;SDS011;36264;51.296;-0.602;2023-02-01T11:19:43;15.68;;;3.42;;
50355;SDS011;36264;51.296;-0.602;2023-02-01T11:22:10;16.30;;;3.42;;
50355;SDS011;36264;51.296;-0.602;2023-02-01T11:24:37;12.52;;;3.20;;
50355;SDS011;36264;51.296;-0.602;2023-02-01T11:27:05;13.77;;;4.15;;
50355;SDS011;36264;51.296;-0.602;2023-02-01T11:29:41;13.40;;;3.67;;
50355;SDS011;36264;51.296;-0.602;2023-02-01T11:32:10;14.60;;;3.17;;
50355;SDS011;36264;51.296;-0.602;2023-02-01T11:34:40;16.80;;;4.18;;
50355;SDS011;36264;51.296;-0.602;2023-02-01T11:37:13;14.70;;;3.60;;
50355;SDS011;36264;51.296;-0.602;2023-02-01T11:39:57;13.43;;;4.28;;
50355;SDS011;36264;51.296;-0.602;2023-02-01T11:42:29;17.60;;;3.08;;
50355;SDS011;36264;51.296;-0.602;2023-02-01T11:45:16;11.82;;;2.58;;
50355;SDS011;36264;51.296;-0.602;2023-02-01T11:47:51;16.98;;;3.72;;
50355;SDS011;36264;51.296;-0.602;2023-02-01T11:50:19;12.88;;;3.50;;
50355;SDS011;36264;51.296;-0.602;2023-02-01T12:06:33;9.52;;;2.72;;
50355;SDS011;36264;51.296;-0.602;2023-02-01T12:09:27;15.60;;;3.25;;
50355;SDS011;36264;51.296;-0.602;2023-02-01T12:12:19;14.20;;;3.92;;
50355;SDS011;36264;51.296;-0.602;2023-02-01T12:17:33;7.63;;;2.85;;
50355;SDS011;36264;51.296;-0.602;2023-02-01T12:28:29;13.57;;;3.10;;
50355;SDS011;36264;51.296;-0.602;2023-02-01T12:36:15;15.55;;;3.45;;
50355;SDS011;36264;51.296;-0.602;2023-02-01T12:39:02;17.38;;;3.30;;
50355;SDS011;36264;51.296;-0.602;2023-02-01T12:41:44;8.95;;;2.95;;
50355;SDS011;36264;51.296;-0.602;2023-02-01T12:44:19;12.68;;;3.22;;
50355;SDS011;36264;51.296;-0.602;2023-02-01T12:46:50;9.90;;;2.58;;
50355;SDS011;36264;51.296;-0.602;2023-02-01T12:49:21;11.68;;;4.05;;
50355;SDS011;36264;51.296;-0.602;2023-02-01T12:51:53;11.65;;;2.58;;
50355;SDS011;36264;51.296;-0.602;2023-02-01T12:57:05;9.80;;;3.20;;
50355;SDS011;36264;51.296;-0.602;2023-02-01T12:59:44;11.45;;;2.80;;
50355;SDS011;36264;51.296;-0.602;2023-02-01T13:02:22;12.88;;;2.75;;
50355;SDS011;36264;51.296;-0.602;2023-02-01T13:04:58;13.50;;;3.03;;
50355;SDS011;36264;51.296;-0.602;2023-02-01T13:07:34;7.97;;;2.78;;
50355;SDS011;36264;51.296;-0.602;2023-02-01T13:10:15;11.40;;;2.53;;
50355;SDS011;36264;51.296;-0.602;2023-02-01T13:12:50;10.55;;;3.55;;
50355;SDS011;36264;51.296;-0.602;2023-02-01T13:15:23;13.75;;;3.03;;
50355;SDS011;36264;51.296;-0.602;2023-02-01T13:17:54;21.95;;;3.78;;
50355;SDS011;36264;51.296;-0.602;2023-02-01T13:20:33;11.68;;;3.47;;
50355;SDS011;36264;51.296;-0.602;2023-02-01T13:23:16;12.57;;;3.10;;
50355;SDS011;36264;51.296;-0.602;2023-02-01T13:25:49;13.02;;;3.60;;
50355;SDS011;36264;51.296;-0.602;2023-02-01T13:28:17;11.35;;;3.05;;
50355;SDS011;36264;51.296;-0.602;2023-02-01T13:30:59;8.90;;;2.55;;
50355;SDS011;36264;51.296;-0.602;2023-02-01T13:44:40;12.70;;;3.22;;
50355;SDS011;36264;51.296;-0.602;2023-02-01T13:47:24;12.88;;;3.53;;
50355;SDS011;36264;51.296;-0.602;2023-02-01T13:49:53;13.35;;;3.75;;
50355;SDS011;36264;51.296;-0.602;2023-02-01T13:52:56;12.55;;;3.10;;
50355;SDS011;36264;51.296;-0.602;2023-02-01T13:57:46;10.80;;;2.60;;
50355;SDS011;36264;51.296;-0.602;2023-02-01T14:21:21;10.90;;;3.08;;
50355;SDS011;36264;51.296;-0.602;2023-02-01T14:28:47;12.27;;;3.30;;
50355;SDS011;36264;51.296;-0.602;2023-02-01T14:31:22;14.20;;;2.33;;
50355;SDS011;36264;51.296;-0.602;2023-02-01T14:33:58;10.48;;;2.50;;
50355;SDS011;36264;51.296;-0.602;2023-02-01T14:36:38;12.90;;;3.00;;
50355;SDS011;36264;51.296;-0.602;2023-02-01T14:39:17;11.88;;;3.35;;
50355;SDS011;36264;51.296;-0.602;2023-02-01T14:41:46;13.65;;;3.10;;
50355;SDS011;36264;51.296;-0.602;2023-02-01T14:44:13;16.85;;;3.08;;
50355;SDS011;36264;51.296;-0.602;2023-02-01T14:47:07;12.98;;;3.50;;
50355;SDS011;36264;51.296;-0.602;2023-02-01T14:52:48;16.73;;;3.97;;
50355;SDS011;36264;51.296;-0.602;2023-02-01T14:55:27;17.08;;;3.72;;
50355;SDS011;36264;51.296;-0.602;2023-02-01T15:01:05;12.00;;;3.20;;
50355;SDS011;36264;51.296;-0.602;2023-02-01T15:04:16;13.93;;;3.55;;
50355;SDS011;36264;51.296;-0.602;2023-02-01T15:06:50;14.07;;;3.67;;
50355;SDS011;36264;51.296;-0.602;2023-02-01T15:12:18;13.35;;;3.03;;
50355;SDS011;36264;51.296;-0.602;2023-02-01T15:17:41;9.70;;;3.58;;
50355;SDS011;36264;51.296;-0.602;2023-02-01T15:20:17;19.52;;;4.65;;
50355;SDS011;36264;51.296;-0.602;2023-02-01T15:22:53;13.57;;;3.05;;
50355;SDS011;36264;51.296;-0.602;2023-02-01T15:25:19;13.25;;;3.90;;
50355;SDS011;36264;51.296;-0.602;2023-02-01T15:27:46;11.25;;;2.70;;
50355;SDS011;36264;51.296;-0.602;2023-02-01T15:30:34;12.18;;;3.22;;
50355;SDS011;36264;51.296;-0.602;2023-02-01T15:33:18;15.32;;;3.60;;
50355;SDS011;36264;51.296;-0.602;2023-02-01T15:35:54;15.25;;;3.63;;
50355;SDS011;36264;51.296;-0.602;2023-02-01T15:38:36;18.75;;;4.70;;
50355;SDS011;36264;51.296;-0.602;2023-02-01T15:41:09;11.77;;;3.88;;
50355;SDS011;36264;51.296;-0.602;2023-02-01T15:43:47;15.90;;;4.03;;
50355;SDS011;36264;51.296;-0.602;2023-02-01T15:46:41;24.98;;;7.80;;
50355;SDS011;36264;51.296;-0.602;2023-02-01T15:49:41;32.05;;;9.73;;
50355;SDS011;36264;51.296;-0.602;2023-02-01T15:52:08;20.05;;;7.03;;
50355;SDS011;36264;51.296;-0.602;2023-02-01T15:54:48;30.50;;;10.98;;
50355;SDS011;36264;51.296;-0.602;2023-02-01T15:57:22;21.52;;;7.70;;
50355;SDS011;36264;51.296;-0.602;2023-02-01T15:59:55;34.42;;;10.88;;
50355;SDS011;36264;51.296;-0.602;2023-02-01T16:02:32;21.10;;;7.55;;
50355;SDS011;36264;51.296;-0.602;2023-02-01T16:07:31;14.82;;;4.68;;
50355;SDS011;36264;51.296;-0.602;2023-02-01T16:09:59;18.50;;;6.15;;
50355;SDS011;36264;51.296;-0.602;2023-02-01T16:15:23;26.58;;;7.93;;
50355;SDS011;36264;51.296;-0.602;2023-02-01T16:17:49;24.38;;;7.43;;
50355;SDS011;36264;51.296;-0.602;2023-02-01T16:20:14;25.08;;;6.97;;
50355;SDS011;36264;51.296;-0.602;2023-02-01T16:22:39;26.20;;;6.10;;
50355;SDS011;36264;51.296;-0.602;2023-02-01T16:25:05;26.70;;;7.50;;
50355;SDS011;36264;51.296;-0.602;2023-02-01T16:27:31;29.20;;;8.75;;
50355;SDS011;36264;51.296;-0.602;2023-02-01T16:29:56;22.42;;;6.00;;
50355;SDS011;36264;51.296;-0.602;2023-02-01T16:32:21;17.83;;;6.38;;
50355;SDS011;36264;51.296;-0.602;2023-02-01T16:34:47;20.95;;;6.10;;
50355;SDS011;36264;51.296;-0.602;2023-02-01T16:37:19;17.63;;;4.72;;
50355;SDS011;36264;51.296;-0.602;2023-02-01T16:39:46;21.45;;;6.28;;
50355;SDS011;36264;51.296;-0.602;2023-02-01T16:42:12;17.85;;;5.38;;
50355;SDS011;36264;51.296;-0.602;2023-02-01T16:44:39;15.23;;;4.05;;
50355;SDS011;36264;51.296;-0.602;2023-02-01T16:47:17;18.25;;;4.03;;
50355;SDS011;36264;51.296;-0.602;2023-02-01T16:49:46;16.63;;;3.95;;
50355;SDS011;36264;51.296;-0.602;2023-02-01T16:52:18;15.80;;;3.45;;
50355;SDS011;36264;51.296;-0.602;2023-02-01T16:54:46;11.88;;;3.33;;
50355;SDS011;36264;51.296;-0.602;2023-02-01T16:57:12;13.15;;;3.38;;
50355;SDS011;36264;51.296;-0.602;2023-02-01T16:59:39;12.32;;;3.40;;
50355;SDS011;36264;51.296;-0.602;2023-02-01T17:02:06;14.43;;;3.47;;
50355;SDS011;36264;51.296;-0.602;2023-02-01T17:04:35;15.07;;;3.38;;